createdAt,value
2022-10-19T00:01:32.657Z,68.74
2022-10-19T00:04:02.466Z,69.05
2022-10-19T00:06:34.027Z,69.09
2022-10-19T00:09:04.007Z,68.70
2022-10-19T00:11:32.211Z,69.23
2022-10-19T00:13:59.591Z,68.93
2022-10-19T00:16:28.995Z,69.27
2022-10-19T00:18:57.665Z,68.60
2022-10-19T00:21:25.029Z,68.33
2022-10-19T00:23:51.404Z,69.35
2022-10-19T00:26:18.122Z,68.91
2022-10-19T00:28:45.010Z,68.82
2022-10-19T00:31:15.112Z,68.56
2022-10-19T00:33:43.112Z,68.68
2022-10-19T00:36:21.675Z,68.68
2022-10-19T00:38:48.532Z,69.04
2022-10-19T00:41:16.176Z,68.70
2022-10-19T00:43:53.422Z,68.61
2022-10-19T00:46:20.007Z,69.21
2022-10-19T00:48:46.524Z,68.79
2022-10-19T00:51:13.852Z,68.93
2022-10-19T00:53:41.220Z,68.71
2022-10-19T00:56:12.887Z,68.84
2022-10-19T00:58:42.621Z,69.08
2022-10-19T01:01:14.217Z,69.66
2022-10-19T01:03:40.639Z,69.64
2022-10-19T01:06:07.981Z,69.15
2022-10-19T01:08:34.397Z,69.02
2022-10-19T01:11:23.245Z,68.55
2022-10-19T01:14:20.757Z,68.94
2022-10-19T01:16:58.591Z,68.43
2022-10-19T01:20:09.277Z,68.37
2022-10-19T01:23:06.608Z,68.47
2022-10-19T01:26:00.507Z,68.55
2022-10-19T01:28:48.724Z,68.12
2022-10-19T01:31:38.252Z,67.86
2022-10-19T01:34:14.901Z,68.25
2022-10-19T01:36:47.991Z,68.50
2022-10-19T01:39:33.350Z,68.80
2022-10-19T01:42:15.472Z,68.10
2022-10-19T01:44:51.027Z,68.49
2022-10-19T01:47:25.940Z,68.34
2022-10-19T01:49:58.711Z,68.23
2022-10-19T01:52:27.216Z,67.91
2022-10-19T01:54:57.515Z,67.63
2022-10-19T01:57:30.538Z,67.86
2022-10-19T01:59:58.088Z,67.57
2022-10-19T02:02:27.801Z,67.52
2022-10-19T02:04:57.549Z,67.38
2022-10-19T02:07:24.811Z,67.16
2022-10-19T02:09:51.336Z,67.63
2022-10-19T02:12:20.268Z,67.05
2022-10-19T02:14:51.730Z,67.29
2022-10-19T02:17:23.815Z,67.42
2022-10-19T02:19:51.454Z,66.93
2022-10-19T02:22:17.900Z,67.48
2022-10-19T02:24:44.303Z,67.27
2022-10-19T02:27:11.582Z,67.51
2022-10-19T02:29:39.481Z,67.11
2022-10-19T02:32:06.824Z,66.84
2022-10-19T02:34:35.060Z,67.13
2022-10-19T02:37:01.827Z,66.64
2022-10-19T02:39:28.344Z,67.06
2022-10-19T02:42:07.194Z,66.53
2022-10-19T02:44:57.294Z,66.33
2022-10-19T02:47:35.857Z,66.57
2022-10-19T02:50:07.170Z,66.38
2022-10-19T02:52:33.680Z,65.51
2022-10-19T02:55:00.033Z,65.50
2022-10-19T02:57:26.469Z,64.88
2022-10-19T02:59:53.017Z,65.17
2022-10-19T03:02:20.650Z,65.13
2022-10-19T03:07:20.663Z,64.95
2022-10-19T03:09:47.091Z,64.91
2022-10-19T03:12:14.475Z,65.02
2022-10-19T03:14:40.880Z,65.67
2022-10-19T03:17:07.746Z,65.11
2022-10-19T03:19:35.523Z,64.72
2022-10-19T03:22:02.372Z,64.54
2022-10-19T03:24:30.198Z,64.91
2022-10-19T03:26:57.085Z,64.03
2022-10-19T03:29:23.542Z,64.65
2022-10-19T03:31:49.928Z,63.84
2022-10-19T03:34:16.479Z,63.45
2022-10-19T03:36:43.039Z,63.85
2022-10-19T03:39:14.119Z,63.98
2022-10-19T03:41:41.012Z,63.30
2022-10-19T03:44:08.904Z,63.55
2022-10-19T03:46:36.392Z,63.22
2022-10-19T03:49:03.664Z,63.30
2022-10-19T03:51:31.268Z,63.09
2022-10-19T03:54:03.603Z,63.26
2022-10-19T03:56:31.229Z,63.63
2022-10-19T03:58:59.855Z,63.11
2022-10-19T04:01:35.436Z,63.02
2022-10-19T04:04:06.027Z,62.63
2022-10-19T04:06:35.780Z,62.42
2022-10-19T04:09:03.159Z,63.01
2022-10-19T04:11:31.072Z,62.91
2022-10-19T04:13:58.788Z,62.51
2022-10-19T04:16:27.693Z,62.56
2022-10-19T04:18:54.879Z,62.69
2022-10-19T04:21:33.194Z,62.82
2022-10-19T04:24:02.478Z,63.47
2022-10-19T04:26:29.259Z,62.68
2022-10-19T04:28:59.793Z,62.50
2022-10-19T04:31:27.672Z,62.87
2022-10-19T04:33:54.266Z,63.11
2022-10-19T04:36:20.707Z,62.55
2022-10-19T04:38:47.439Z,62.85
2022-10-19T04:41:16.639Z,63.08
2022-10-19T04:43:45.245Z,63.11
2022-10-19T04:46:15.304Z,63.20
2022-10-19T04:48:41.984Z,62.94
2022-10-19T04:51:08.907Z,62.73
2022-10-19T04:53:37.811Z,62.53
2022-10-19T04:56:06.063Z,62.37
2022-10-19T04:58:33.147Z,62.89
2022-10-19T05:00:59.538Z,61.89
2022-10-19T05:03:26.116Z,62.63
2022-10-19T05:05:52.466Z,62.66
2022-10-19T05:08:18.885Z,63.01
2022-10-19T05:10:47.619Z,62.97
2022-10-19T05:13:14.390Z,63.15
2022-10-19T05:15:40.780Z,63.46
2022-10-19T05:18:07.162Z,63.57
2022-10-19T05:20:33.555Z,63.90
2022-10-19T05:23:04.603Z,63.99
2022-10-19T05:25:33.560Z,63.83
2022-10-19T05:27:59.892Z,63.84
2022-10-19T05:30:26.485Z,63.96
2022-10-19T05:32:52.826Z,64.51
2022-10-19T05:35:22.336Z,64.41
2022-10-19T05:37:49.200Z,63.92
2022-10-19T05:40:15.606Z,64.53
2022-10-19T05:42:41.956Z,64.47
2022-10-19T05:45:08.605Z,63.77
2022-10-19T05:47:35.529Z,64.36
2022-10-19T05:50:03.732Z,63.97
2022-10-19T05:52:30.154Z,63.62
2022-10-19T05:54:58.293Z,63.98
2022-10-19T05:57:25.402Z,64.56
2022-10-19T05:59:52.020Z,63.75
2022-10-19T06:02:18.451Z,64.48
2022-10-19T06:04:44.997Z,64.45
2022-10-19T06:07:11.344Z,64.35
2022-10-19T06:09:37.817Z,64.73
2022-10-19T06:12:04.288Z,64.19
2022-10-19T06:14:30.725Z,64.73
2022-10-19T06:16:57.214Z,64.63
2022-10-19T06:19:23.655Z,64.82
2022-10-19T06:21:50.019Z,64.27
2022-10-19T06:24:16.558Z,63.96
2022-10-19T06:26:42.933Z,64.50
2022-10-19T06:29:09.808Z,64.28
2022-10-19T06:31:36.468Z,64.72
2022-10-19T06:34:03.242Z,64.66
2022-10-19T06:36:31.360Z,64.72
2022-10-19T06:38:59.718Z,64.68
2022-10-19T06:41:26.680Z,64.60
2022-10-19T06:43:54.832Z,64.61
2022-10-19T06:46:23.405Z,64.80
2022-10-19T06:48:51.634Z,64.69
2022-10-19T06:51:18.271Z,64.52
2022-10-19T06:53:44.659Z,64.39
2022-10-19T06:56:11.078Z,64.87
2022-10-19T06:58:38.507Z,65.08
2022-10-19T07:01:07.639Z,65.22
2022-10-19T07:03:35.175Z,65.33
2022-10-19T07:06:04.601Z,65.39
2022-10-19T07:08:32.474Z,66.16
2022-10-19T07:11:01.929Z,65.85
2022-10-19T07:13:29.663Z,65.78
2022-10-19T07:16:01.375Z,66.20
2022-10-19T07:18:27.751Z,66.44
2022-10-19T07:21:03.131Z,66.27
2022-10-19T07:23:31.645Z,66.79
2022-10-19T07:26:01.764Z,66.51
2022-10-19T07:28:30.255Z,67.38
2022-10-19T07:30:57.077Z,66.58
2022-10-19T07:33:24.120Z,66.71
2022-10-19T07:35:50.741Z,66.32
2022-10-19T07:38:17.296Z,66.67
2022-10-19T07:40:46.541Z,66.52
2022-10-19T07:43:14.036Z,66.71
2022-10-19T07:45:40.376Z,66.68
2022-10-19T07:48:06.901Z,66.71
2022-10-19T07:50:33.440Z,66.68
2022-10-19T07:52:59.849Z,66.01
2022-10-19T07:55:26.235Z,66.70
2022-10-19T07:57:52.772Z,66.68
2022-10-19T08:00:19.271Z,66.08
2022-10-19T08:03:04.991Z,66.34
2022-10-19T08:05:33.371Z,66.37
2022-10-19T08:07:59.815Z,66.39
2022-10-19T08:10:26.245Z,66.15
2022-10-19T08:12:52.881Z,65.60
2022-10-19T08:15:19.372Z,65.92
2022-10-19T08:17:45.752Z,65.65
2022-10-19T08:20:12.276Z,66.17
2022-10-19T08:22:39.598Z,66.14
2022-10-19T08:25:07.208Z,66.09
2022-10-19T08:27:37.335Z,66.55
2022-10-19T08:30:04.034Z,65.85
2022-10-19T08:32:37.401Z,65.21
2022-10-19T08:35:08.487Z,65.25
2022-10-19T08:37:45.302Z,66.09
2022-10-19T08:40:24.824Z,65.26
2022-10-19T08:43:04.459Z,64.82
2022-10-19T08:45:50.824Z,64.08
2022-10-19T08:48:36.578Z,64.39
2022-10-19T08:51:05.484Z,63.74
2022-10-19T08:53:56.150Z,63.61
2022-10-19T08:56:50.387Z,63.65
2022-10-19T08:59:27.724Z,63.81
2022-10-19T09:02:10.425Z,63.47
2022-10-19T09:04:40.132Z,62.96
2022-10-19T09:07:21.904Z,62.16
2022-10-19T09:09:57.319Z,62.37
2022-10-19T09:12:37.837Z,61.81
2022-10-19T09:15:07.648Z,61.94
2022-10-19T09:17:38.791Z,61.63
2022-10-19T09:20:19.000Z,60.96
2022-10-19T09:23:13.294Z,60.28
2022-10-19T09:25:40.827Z,60.39
2022-10-19T09:29:03.487Z,59.12
2022-10-19T09:31:40.358Z,59.23
2022-10-19T09:34:29.469Z,59.24
2022-10-19T09:36:59.647Z,59.54
2022-10-19T09:39:29.559Z,59.73
2022-10-19T09:42:07.588Z,59.61
2022-10-19T09:44:34.225Z,59.69
2022-10-19T09:47:32.363Z,59.37
2022-10-19T09:50:22.666Z,59.34
2022-10-19T09:52:51.745Z,59.36
2022-10-19T09:55:39.132Z,60.22
2022-10-19T09:58:14.945Z,59.16
2022-10-19T10:00:43.972Z,58.84
2022-10-19T10:03:32.058Z,58.10
2022-10-19T10:06:03.896Z,58.07
2022-10-19T10:08:33.812Z,55.33
2022-10-19T10:11:11.442Z,51.98
2022-10-19T10:13:43.508Z,45.39
2022-10-19T10:16:16.441Z,42.46
2022-10-19T10:18:51.680Z,38.74
2022-10-19T10:21:25.798Z,37.13
2022-10-19T10:24:26.195Z,38.22
2022-10-19T10:26:56.082Z,39.54
2022-10-19T10:29:25.679Z,41.58
2022-10-19T10:32:00.292Z,42.70
2022-10-19T10:34:49.428Z,43.59
2022-10-19T10:37:31.202Z,44.74
2022-10-19T10:40:04.578Z,44.57
2022-10-19T10:42:40.832Z,45.63
2022-10-19T10:45:22.688Z,40.06
2022-10-19T10:47:50.580Z,34.85
2022-10-19T10:50:31.728Z,33.51
2022-10-19T10:53:29.786Z,30.46
2022-10-19T10:55:56.753Z,26.60
2022-10-19T10:58:47.933Z,27.86
2022-10-19T11:01:23.286Z,25.43
2022-10-19T11:04:03.711Z,24.29
2022-10-19T11:06:34.477Z,20.84
2022-10-19T11:09:15.890Z,21.46
2022-10-19T11:11:47.454Z,21.25
2022-10-19T11:14:25.217Z,20.65
2022-10-19T11:17:00.247Z,21.73
2022-10-19T11:19:35.779Z,22.89
2022-10-19T11:22:08.794Z,23.11
2022-10-19T11:24:56.894Z,25.74
2022-10-19T11:27:41.170Z,25.73
2022-10-19T11:30:20.037Z,23.21
2022-10-19T11:32:57.689Z,21.67
2022-10-19T11:35:32.972Z,21.74
2022-10-19T11:38:27.393Z,23.27
2022-10-19T11:41:18.893Z,25.78
2022-10-19T11:44:06.849Z,28.51
2022-10-19T11:46:51.209Z,31.63
2022-10-19T11:49:46.478Z,30.17
2022-10-19T11:52:25.208Z,29.83
2022-10-19T11:55:24.217Z,30.82
2022-10-19T11:58:21.384Z,32.75
2022-10-19T12:01:02.898Z,30.08
2022-10-19T12:03:57.445Z,26.08
2022-10-19T12:07:00.167Z,23.21
2022-10-19T12:09:57.780Z,20.53
2022-10-19T12:12:34.171Z,18.96
2022-10-19T12:15:27.272Z,17.97
2022-10-19T12:17:58.471Z,17.41
2022-10-19T12:20:30.810Z,16.14
2022-10-19T12:22:59.374Z,15.68
2022-10-19T12:25:26.552Z,15.35
2022-10-19T12:27:54.081Z,14.72
2022-10-19T12:30:22.867Z,14.84
2022-10-19T12:33:03.314Z,14.57
2022-10-19T12:36:06.744Z,14.79
2022-10-19T12:38:45.126Z,14.40
2022-10-19T12:41:31.245Z,14.66
2022-10-19T12:44:34.969Z,14.38
2022-10-19T12:47:15.329Z,14.35
2022-10-19T12:49:57.488Z,13.76
2022-10-19T12:52:44.887Z,13.81
2022-10-19T12:55:12.773Z,13.71
2022-10-19T12:57:40.584Z,13.22
2022-10-19T13:00:20.628Z,13.67
2022-10-19T13:02:55.264Z,13.45
2022-10-19T13:05:23.969Z,13.36
2022-10-19T13:10:26.208Z,13.42
2022-10-19T13:12:53.944Z,14.70
2022-10-19T13:15:35.529Z,17.41
2022-10-19T13:18:41.016Z,16.26
2022-10-19T13:21:08.437Z,15.03
2022-10-19T13:23:39.592Z,15.15
2022-10-19T13:26:30.237Z,15.12
2022-10-19T13:28:57.026Z,14.38
2022-10-19T13:31:29.167Z,14.14
2022-10-19T13:33:56.371Z,13.80
2022-10-19T13:36:24.782Z,13.91
2022-10-19T13:38:51.129Z,14.06
2022-10-19T13:41:22.398Z,13.72
2022-10-19T13:44:04.256Z,14.12
2022-10-19T13:46:30.656Z,13.75
2022-10-19T13:49:12.276Z,14.19
2022-10-19T13:52:02.205Z,14.50
2022-10-19T13:54:34.667Z,14.90
2022-10-19T13:57:18.277Z,14.84
2022-10-19T14:00:03.305Z,15.51
2022-10-19T14:03:19.947Z,15.38
2022-10-19T14:06:17.267Z,16.18
2022-10-19T14:08:49.641Z,16.54
2022-10-19T14:11:26.067Z,17.67
2022-10-19T14:14:14.574Z,18.56
2022-10-19T14:17:02.980Z,20.00
2022-10-19T14:19:40.782Z,22.36
2022-10-19T14:22:40.565Z,23.97
2022-10-19T14:25:16.004Z,25.56
2022-10-19T14:27:42.882Z,26.27
2022-10-19T14:30:32.237Z,28.16
2022-10-19T14:33:02.352Z,29.18
2022-10-19T14:35:34.103Z,31.05
2022-10-19T14:38:01.256Z,31.56
2022-10-19T14:40:37.565Z,33.15
2022-10-19T14:43:20.744Z,33.73
2022-10-19T14:46:03.221Z,34.41
2022-10-19T14:48:29.804Z,35.48
2022-10-19T14:50:57.760Z,36.20
2022-10-19T14:53:42.347Z,36.30
2022-10-19T14:56:19.898Z,37.00
2022-10-19T14:58:55.203Z,37.78
2022-10-19T15:01:21.941Z,37.77
2022-10-19T15:03:49.971Z,38.27
2022-10-19T15:06:24.690Z,38.28
2022-10-19T15:09:30.455Z,37.99
2022-10-19T15:12:14.251Z,38.77
2022-10-19T15:14:41.469Z,39.21
2022-10-19T15:17:28.144Z,39.03
2022-10-19T15:19:56.066Z,40.29
2022-10-19T15:22:31.909Z,40.12
2022-10-19T15:25:00.631Z,40.01
2022-10-19T15:27:39.178Z,39.73
2022-10-19T15:30:17.807Z,40.12
2022-10-19T15:32:46.389Z,40.25
2022-10-19T15:35:23.064Z,40.61
2022-10-19T15:37:50.318Z,40.35
2022-10-19T15:40:25.792Z,41.10
2022-10-19T15:42:52.483Z,41.41
2022-10-19T15:45:35.837Z,41.37
2022-10-19T15:48:26.335Z,41.70
2022-10-19T15:50:54.085Z,41.88
2022-10-19T15:53:21.701Z,42.92
2022-10-19T15:55:48.919Z,42.60
2022-10-19T15:58:15.852Z,43.47
2022-10-19T16:00:42.502Z,43.32
2022-10-19T16:03:09.900Z,43.86
2022-10-19T16:05:36.671Z,43.91
2022-10-19T16:08:03.576Z,44.31
2022-10-19T16:10:29.945Z,44.28
2022-10-19T16:12:56.320Z,44.62
2022-10-19T16:15:23.480Z,44.90
2022-10-19T16:17:53.344Z,45.17
2022-10-19T16:20:20.283Z,45.40
2022-10-19T16:22:47.975Z,45.36
2022-10-19T16:25:15.127Z,45.33
2022-10-19T16:27:41.886Z,45.58
2022-10-19T16:30:09.137Z,45.75
2022-10-19T16:32:35.572Z,45.70
2022-10-19T16:35:02.120Z,45.65
2022-10-19T16:37:28.536Z,45.80
2022-10-19T16:39:55.064Z,45.79
2022-10-19T16:42:22.297Z,46.06
2022-10-19T16:45:20.319Z,45.99
2022-10-19T16:48:13.364Z,45.23
2022-10-19T16:51:27.716Z,45.43
2022-10-19T16:54:00.014Z,46.22
2022-10-19T16:56:28.929Z,45.70
2022-10-19T16:58:59.838Z,45.89
2022-10-19T17:01:27.437Z,45.94
2022-10-19T17:03:55.010Z,46.25
2022-10-19T17:06:21.913Z,45.99
2022-10-19T17:11:38.238Z,45.78
2022-10-19T17:14:07.605Z,46.25
2022-10-19T17:16:36.083Z,46.50
2022-10-19T17:19:04.269Z,46.56
2022-10-19T17:21:33.178Z,46.61
2022-10-19T17:24:01.842Z,47.13
2022-10-19T17:26:34.302Z,47.24
2022-10-19T17:29:01.282Z,46.72
2022-10-19T17:31:28.927Z,47.50
2022-10-19T17:33:55.721Z,47.53
2022-10-19T17:36:25.509Z,47.56
2022-10-19T17:38:53.507Z,47.99
2022-10-19T17:41:22.023Z,47.91
2022-10-19T17:43:53.015Z,47.88
2022-10-19T17:46:28.929Z,48.34
2022-10-19T17:48:57.312Z,48.06
2022-10-19T17:51:27.393Z,48.33
2022-10-19T17:54:01.336Z,48.81
2022-10-19T17:56:28.786Z,48.97
2022-10-19T17:58:57.330Z,48.99
2022-10-19T18:01:24.636Z,49.17
2022-10-19T18:03:51.421Z,49.09
2022-10-19T18:06:20.747Z,49.26
2022-10-19T18:08:52.051Z,49.09
2022-10-19T18:11:21.521Z,49.50
2022-10-19T18:13:49.528Z,49.94
2022-10-19T18:16:23.001Z,50.34
2022-10-19T18:18:51.107Z,49.98
2022-10-19T18:21:20.613Z,50.22
2022-10-19T18:23:47.691Z,49.96
2022-10-19T18:26:16.825Z,50.40
2022-10-19T18:28:43.535Z,50.67
2022-10-19T18:31:14.208Z,50.56
2022-10-19T18:33:40.925Z,50.67
2022-10-19T18:36:09.175Z,50.70
2022-10-19T18:38:37.137Z,50.66
2022-10-19T18:41:11.614Z,50.72
2022-10-19T18:43:39.264Z,50.58
2022-10-19T18:46:05.992Z,50.75
2022-10-19T18:48:32.522Z,50.85
2022-10-19T18:51:03.470Z,50.87
2022-10-19T18:53:30.295Z,50.92
2022-10-19T18:55:58.247Z,51.00
2022-10-19T18:58:25.347Z,51.14
2022-10-19T19:01:06.124Z,51.52
2022-10-19T19:03:33.298Z,51.65
2022-10-19T19:06:01.423Z,52.22
2022-10-19T19:08:28.859Z,51.93
2022-10-19T19:10:56.447Z,52.25
2022-10-19T19:13:23.812Z,52.16
2022-10-19T19:15:59.942Z,52.05
2022-10-19T19:18:27.332Z,51.99
2022-10-19T19:20:53.918Z,52.57
2022-10-19T19:23:20.315Z,52.55
2022-10-19T19:25:46.842Z,52.38
2022-10-19T19:28:13.214Z,52.64
2022-10-19T19:30:44.416Z,52.63
2022-10-19T19:33:11.254Z,52.65
2022-10-19T19:35:48.331Z,52.66
2022-10-19T19:38:15.524Z,52.54
2022-10-19T19:40:44.687Z,52.89
2022-10-19T19:43:12.662Z,53.05
2022-10-19T19:45:40.008Z,53.04
2022-10-19T19:48:09.208Z,53.24
2022-10-19T19:50:37.090Z,53.46
2022-10-19T19:53:04.845Z,53.51
2022-10-19T19:55:36.777Z,53.40
2022-10-19T19:58:05.605Z,53.36
2022-10-19T20:00:32.400Z,53.86
2022-10-19T20:02:59.059Z,54.45
2022-10-19T20:05:26.991Z,54.00
2022-10-19T20:07:53.474Z,54.14
2022-10-19T20:10:20.297Z,53.77
2022-10-19T20:12:47.231Z,54.50
2022-10-19T20:15:16.299Z,54.23
2022-10-19T20:17:44.088Z,54.55
2022-10-19T20:20:12.254Z,54.52
2022-10-19T20:22:39.040Z,54.28
2022-10-19T20:25:06.409Z,54.78
2022-10-19T20:27:36.241Z,54.75
2022-10-19T20:30:03.673Z,54.88
2022-10-19T20:32:30.920Z,55.45
2022-10-19T20:34:57.571Z,54.94
2022-10-19T20:37:24.105Z,55.06
2022-10-19T20:39:50.584Z,55.13
2022-10-19T20:42:18.732Z,55.08
2022-10-19T20:44:45.436Z,54.68
2022-10-19T20:47:11.856Z,55.06
2022-10-19T20:49:38.535Z,55.13
2022-10-19T20:52:04.982Z,55.44
2022-10-19T20:54:31.923Z,55.36
2022-10-19T20:56:59.060Z,55.24
2022-10-19T20:59:27.651Z,55.18
2022-10-19T21:01:56.160Z,55.29
2022-10-19T21:04:23.887Z,55.63
2022-10-19T21:06:51.720Z,55.53
2022-10-19T21:09:21.136Z,55.80
2022-10-19T21:11:50.000Z,55.78
2022-10-19T21:14:27.223Z,55.90
2022-10-19T21:16:59.607Z,55.99
2022-10-19T21:19:28.377Z,56.07
2022-10-19T21:21:57.682Z,56.00
2022-10-19T21:24:26.584Z,56.26
2022-10-19T21:26:53.438Z,56.27
2022-10-19T21:29:19.989Z,56.20
2022-10-19T21:31:49.240Z,56.30
2022-10-19T21:34:18.972Z,56.50
2022-10-19T21:36:45.418Z,56.86
2022-10-19T21:39:11.956Z,56.62
2022-10-19T21:41:38.499Z,56.48
2022-10-19T21:44:05.114Z,56.63
2022-10-19T21:46:31.614Z,56.56
2022-10-19T21:48:58.131Z,56.70
2022-10-19T21:51:32.115Z,57.05
2022-10-19T21:53:59.154Z,56.58
2022-10-19T21:56:25.686Z,56.62
2022-10-19T21:58:53.147Z,56.93
2022-10-19T22:01:22.134Z,57.23
2022-10-19T22:03:48.641Z,56.86
2022-10-19T22:06:15.599Z,57.28
2022-10-19T22:08:46.000Z,57.30
2022-10-19T22:11:13.845Z,57.08
2022-10-19T22:13:41.020Z,57.77
2022-10-19T22:16:14.162Z,57.50
2022-10-19T22:18:40.796Z,57.25
2022-10-19T22:21:09.886Z,57.99
2022-10-19T22:23:36.516Z,57.32
2022-10-19T22:26:11.799Z,57.66
2022-10-19T22:28:38.222Z,57.35
2022-10-19T22:31:04.739Z,57.49
2022-10-19T22:33:31.182Z,57.68
2022-10-19T22:35:59.605Z,57.73
2022-10-19T22:38:27.422Z,58.16
2022-10-19T22:40:53.785Z,58.12
2022-10-19T22:43:20.602Z,57.94
2022-10-19T22:45:48.354Z,58.02
2022-10-19T22:48:16.348Z,57.23
2022-10-19T22:50:43.089Z,57.78
2022-10-19T22:53:09.721Z,57.75
2022-10-19T22:55:36.196Z,58.16
2022-10-19T22:58:03.870Z,58.28
2022-10-19T23:00:30.755Z,58.88
2022-10-19T23:02:57.595Z,58.02
2022-10-19T23:05:24.269Z,57.91
2022-10-19T23:07:50.781Z,58.19
2022-10-19T23:10:17.673Z,58.44
2022-10-19T23:12:44.159Z,58.40
2022-10-19T23:15:10.699Z,58.65
2022-10-19T23:17:37.563Z,58.91
2022-10-19T23:20:04.593Z,58.38
2022-10-19T23:22:31.291Z,58.59
2022-10-19T23:24:57.668Z,58.58
2022-10-19T23:27:24.191Z,58.70
2022-10-19T23:29:50.633Z,58.66
2022-10-19T23:32:17.164Z,58.20
2022-10-19T23:34:46.011Z,58.28
2022-10-19T23:37:14.800Z,58.75
2022-10-19T23:39:41.189Z,58.87
2022-10-19T23:42:07.714Z,58.77
2022-10-19T23:44:34.181Z,58.53
2022-10-19T23:47:00.528Z,59.19
2022-10-19T23:49:26.922Z,59.46
2022-10-19T23:51:53.387Z,59.58
2022-10-19T23:54:19.839Z,59.23
2022-10-19T23:56:46.384Z,59.13
2022-10-19T23:59:12.978Z,59.38
